createdAt,value
2023-04-19T00:02:13.892Z,2.70
2023-04-19T00:05:15.665Z,2.50
2023-04-19T00:08:17.411Z,2.00
2023-04-19T00:11:19.314Z,1.50
2023-04-19T00:14:20.969Z,1.90
2023-04-19T00:17:23.129Z,1.90
2023-04-19T00:20:24.829Z,1.67
2023-04-19T00:23:26.562Z,1.70
2023-04-19T00:26:28.332Z,1.60
2023-04-19T00:29:31.119Z,1.70
2023-04-19T00:32:33.841Z,2.60
2023-04-19T00:35:35.608Z,2.30
2023-04-19T00:38:37.287Z,2.30
2023-04-19T00:41:39.021Z,2.30
2023-04-19T00:44:40.753Z,2.50
2023-04-19T00:47:43.800Z,2.80
2023-04-19T00:50:46.842Z,2.60
2023-04-19T00:53:49.502Z,2.60
2023-04-19T00:56:53.514Z,3.17
2023-04-19T00:59:55.606Z,3.60
2023-04-19T01:02:57.733Z,4.70
2023-04-19T01:05:59.434Z,4.67
2023-04-19T01:09:01.202Z,6.20
2023-04-19T01:12:03.516Z,6.93
2023-04-19T01:15:05.463Z,7.60
2023-04-19T01:18:07.460Z,6.33
2023-04-19T01:21:09.545Z,6.90
2023-04-19T01:24:11.459Z,6.67
2023-04-19T01:27:14.227Z,5.73
2023-04-19T01:30:16.097Z,5.60
2023-04-19T01:33:17.786Z,5.33
2023-04-19T01:36:19.484Z,5.83
2023-04-19T01:39:21.314Z,5.30
2023-04-19T01:42:23.065Z,5.03
2023-04-19T01:45:24.743Z,5.77
2023-04-19T01:48:26.858Z,5.13
2023-04-19T01:51:28.493Z,4.80
2023-04-19T01:54:30.254Z,4.30
2023-04-19T01:57:31.896Z,4.93
2023-04-19T02:00:33.688Z,4.83
2023-04-19T02:03:40.097Z,5.30
2023-04-19T02:06:42.131Z,5.53
2023-04-19T02:09:43.781Z,5.10
2023-04-19T02:12:47.028Z,4.70
2023-04-19T02:15:49.280Z,4.90
2023-04-19T02:18:52.154Z,4.93
2023-04-19T02:21:57.695Z,5.00
2023-04-19T02:24:59.494Z,5.10
2023-04-19T02:28:04.551Z,5.40
2023-04-19T02:31:07.055Z,5.70
2023-04-19T02:34:09.716Z,5.87
2023-04-19T02:37:11.415Z,5.63
2023-04-19T02:40:13.036Z,6.03
2023-04-19T02:43:14.729Z,5.70
2023-04-19T02:46:18.335Z,5.33
2023-04-19T02:49:20.551Z,5.60
2023-04-19T02:52:22.297Z,5.50
2023-04-19T02:55:24.012Z,5.50
2023-04-19T02:58:35.181Z,5.20
2023-04-19T03:01:40.087Z,4.57
2023-04-19T03:04:43.588Z,4.43
2023-04-19T03:07:45.717Z,4.70
2023-04-19T03:10:47.394Z,4.37
2023-04-19T03:13:49.128Z,4.07
2023-04-19T03:16:50.884Z,4.60
2023-04-19T03:19:52.882Z,4.43
2023-04-19T03:22:55.546Z,5.57
2023-04-19T03:25:57.538Z,5.83
2023-04-19T03:29:07.693Z,6.63
2023-04-19T03:32:20.966Z,5.80
2023-04-19T03:35:26.302Z,6.20
2023-04-19T03:38:30.814Z,6.83
2023-04-19T03:41:33.773Z,7.07
2023-04-19T03:45:13.932Z,7.93
2023-04-19T03:48:20.844Z,9.13
2023-04-19T03:51:22.630Z,8.50
2023-04-19T03:54:24.322Z,8.60
2023-04-19T03:57:26.461Z,8.93
2023-04-19T04:00:29.356Z,7.27
2023-04-19T04:03:35.156Z,8.60
2023-04-19T04:06:38.867Z,10.17
2023-04-19T04:09:40.495Z,9.50
2023-04-19T04:12:42.234Z,9.23
2023-04-19T04:15:47.200Z,9.23
2023-04-19T04:18:51.013Z,9.40
2023-04-19T04:21:52.667Z,9.77
2023-04-19T04:24:55.122Z,10.53
2023-04-19T04:28:01.690Z,10.37
2023-04-19T04:31:03.587Z,11.13
2023-04-19T04:34:09.382Z,9.40
2023-04-19T04:37:18.017Z,11.10
2023-04-19T04:40:21.496Z,10.83
2023-04-19T04:43:24.054Z,10.70
2023-04-19T04:46:26.397Z,9.00
2023-04-19T04:49:28.633Z,9.67
2023-04-19T04:52:34.057Z,12.87
2023-04-19T04:55:50.282Z,10.87
2023-04-19T04:58:53.057Z,10.17
2023-04-19T05:02:02.551Z,9.67
2023-04-19T05:05:04.658Z,8.93
2023-04-19T05:08:07.849Z,6.70
2023-04-19T05:11:10.061Z,8.60
2023-04-19T05:14:13.417Z,7.53
2023-04-19T05:17:15.482Z,8.10
2023-04-19T05:20:17.643Z,6.10
2023-04-19T05:23:21.376Z,6.93
2023-04-19T05:26:25.072Z,8.87
2023-04-19T05:29:28.608Z,5.67
2023-04-19T05:32:31.163Z,6.37
2023-04-19T05:35:34.391Z,10.80
2023-04-19T05:38:36.429Z,8.60
2023-04-19T05:41:38.302Z,6.73
2023-04-19T05:44:40.761Z,6.40
2023-04-19T05:47:43.063Z,7.23
2023-04-19T05:50:44.751Z,7.27
2023-04-19T05:54:04.011Z,7.60
2023-04-19T05:57:06.067Z,7.90
2023-04-19T06:00:09.791Z,7.90
2023-04-19T06:03:27.709Z,5.80
2023-04-19T06:06:32.066Z,6.07
2023-04-19T06:09:34.155Z,5.70
2023-04-19T06:12:35.855Z,5.83
2023-04-19T06:15:40.161Z,5.60
2023-04-19T06:18:43.253Z,6.77
2023-04-19T06:21:45.208Z,7.60
2023-04-19T06:24:49.932Z,6.30
2023-04-19T06:27:51.488Z,7.10
2023-04-19T06:30:53.047Z,7.40
2023-04-19T06:33:54.758Z,7.80
2023-04-19T06:36:57.019Z,7.37
2023-04-19T06:39:58.690Z,8.60
2023-04-19T06:43:00.351Z,7.27
2023-04-19T06:46:04.595Z,9.47
2023-04-19T06:49:06.504Z,8.90
2023-04-19T06:52:08.183Z,8.47
2023-04-19T06:55:10.049Z,9.70
2023-04-19T06:58:11.899Z,9.90
2023-04-19T07:01:13.594Z,9.37
2023-04-19T07:04:15.947Z,10.93
2023-04-19T07:07:18.008Z,10.60
2023-04-19T07:10:19.676Z,12.10
2023-04-19T07:13:21.514Z,10.90
2023-04-19T07:16:23.383Z,11.03
2023-04-19T07:19:25.038Z,11.77
2023-04-19T07:22:26.687Z,12.43
2023-04-19T07:25:28.392Z,11.47
2023-04-19T07:28:30.114Z,11.13
2023-04-19T07:31:31.786Z,9.87
2023-04-19T07:34:33.472Z,8.60
2023-04-19T07:37:35.196Z,9.43
2023-04-19T07:40:36.999Z,13.47
2023-04-19T07:43:39.411Z,9.40
2023-04-19T07:46:43.806Z,9.73
2023-04-19T07:49:45.600Z,10.97
2023-04-19T07:52:47.347Z,10.83
2023-04-19T07:55:49.048Z,11.00
2023-04-19T15:31:16.506Z,4.23
2023-04-19T15:34:19.829Z,3.60
2023-04-19T15:37:21.459Z,3.73
2023-04-19T15:40:24.530Z,6.20
2023-04-19T15:43:26.243Z,5.60
2023-04-19T15:46:28.094Z,4.70
2023-04-19T15:49:32.495Z,6.10
2023-04-19T15:52:38.630Z,7.30
2023-04-19T15:55:41.598Z,4.20
2023-04-19T15:58:45.707Z,3.90
2023-04-19T16:01:49.731Z,3.80
2023-04-19T16:04:51.599Z,8.53
2023-04-19T16:08:06.438Z,20.00
2023-04-19T16:11:11.358Z,18.97
2023-04-19T16:14:13.060Z,8.03
2023-04-19T16:17:16.656Z,7.70
2023-04-19T16:20:20.921Z,14.40
2023-04-19T16:23:23.883Z,6.87
2023-04-19T16:26:25.888Z,6.43
2023-04-19T16:29:27.798Z,5.43
2023-04-19T16:32:30.662Z,7.50
2023-04-19T16:35:32.296Z,6.73
2023-04-19T16:38:36.896Z,7.30
2023-04-19T16:41:38.904Z,7.37
2023-04-19T16:44:40.770Z,24.23
2023-04-19T16:47:45.861Z,17.87
2023-04-19T16:50:48.885Z,16.40
2023-04-19T16:53:50.844Z,20.57
2023-04-19T16:56:52.595Z,15.23
2023-04-19T16:59:54.282Z,14.67
2023-04-19T17:02:56.208Z,33.50
2023-04-19T17:05:58.142Z,33.60
2023-04-19T17:09:01.485Z,21.20
2023-04-19T17:12:03.311Z,25.17
2023-04-19T17:15:05.227Z,22.00
2023-04-19T17:18:07.133Z,20.90
2023-04-19T17:21:08.906Z,27.73
2023-04-19T17:24:10.656Z,24.83
2023-04-19T17:27:12.448Z,34.90
2023-04-19T17:30:14.462Z,20.83
2023-04-19T17:33:16.142Z,18.37
2023-04-19T17:36:18.721Z,14.00
2023-04-19T17:39:20.474Z,13.30
2023-04-19T17:42:23.786Z,14.10
2023-04-19T17:45:25.518Z,18.00
2023-04-19T17:48:27.247Z,15.70
2023-04-19T17:51:28.931Z,12.43
2023-04-19T17:54:32.946Z,12.97
2023-04-19T17:57:34.904Z,14.57
2023-04-19T18:00:40.760Z,12.20
2023-04-19T18:03:42.581Z,11.67
2023-04-19T18:06:47.299Z,14.47
2023-04-19T18:09:50.928Z,19.07
2023-04-19T18:13:00.128Z,19.03
2023-04-19T18:16:03.591Z,17.70
2023-04-19T18:19:05.346Z,19.10
2023-04-19T18:22:07.011Z,18.37
2023-04-19T18:25:11.574Z,13.53
2023-04-19T18:28:16.133Z,14.60
2023-04-19T18:31:17.812Z,11.87
2023-04-19T18:34:19.800Z,10.03
2023-04-19T18:37:21.557Z,17.53
2023-04-19T18:40:23.249Z,16.00
2023-04-19T18:43:25.757Z,23.23
2023-04-19T18:46:27.824Z,18.93
2023-04-19T18:49:29.636Z,20.47
2023-04-19T18:52:31.297Z,16.80
2023-04-19T18:55:33.028Z,14.80
2023-04-19T18:58:34.813Z,14.73
2023-04-19T19:01:36.448Z,12.07
2023-04-19T19:04:52.050Z,16.57
2023-04-19T19:07:58.413Z,25.67
2023-04-19T19:14:04.754Z,12.27
2023-04-19T19:17:06.946Z,12.47
2023-04-19T19:20:10.032Z,13.53
2023-04-19T19:23:13.097Z,12.23
2023-04-19T19:26:14.976Z,16.07
2023-04-19T19:29:17.304Z,18.63
2023-04-19T19:32:19.438Z,16.83
2023-04-19T19:35:21.140Z,11.50
2023-04-19T19:38:22.730Z,12.53
2023-04-19T19:42:00.704Z,14.10
2023-04-19T19:44:46.156Z,14.47
2023-04-19T19:47:49.569Z,12.20
2023-04-19T19:53:56.946Z,13.43
2023-04-19T20:00:23.008Z,9.83
2023-04-19T20:03:36.708Z,11.57
2023-04-19T20:09:44.720Z,11.57
2023-04-19T20:12:47.126Z,9.47
2023-04-19T20:15:48.841Z,11.50
2023-04-19T20:18:52.869Z,12.70
2023-04-19T20:21:59.275Z,11.17
2023-04-19T20:25:01.871Z,11.47
2023-04-19T20:28:04.980Z,12.20
2023-04-19T20:31:10.246Z,12.53
2023-04-19T20:34:11.952Z,10.13
2023-04-19T20:37:13.619Z,9.13
2023-04-19T20:40:16.125Z,9.80
2023-04-19T20:43:17.844Z,9.33
2023-04-19T20:46:19.503Z,9.20
2023-04-19T20:49:21.478Z,9.70
2023-04-19T20:52:23.080Z,9.70
2023-04-19T20:55:24.784Z,11.13
2023-04-19T20:58:26.496Z,8.27
2023-04-19T21:01:28.187Z,9.90
2023-04-19T21:04:30.009Z,10.73
2023-04-19T21:07:31.811Z,13.23
2023-04-19T21:10:33.387Z,12.43
2023-04-19T21:13:35.049Z,14.90
2023-04-19T21:16:36.679Z,12.60
2023-04-19T21:19:38.317Z,11.83
2023-04-19T21:22:43.846Z,11.43
2023-04-19T21:25:45.484Z,12.67
2023-04-19T21:28:47.235Z,10.03
2023-04-19T21:31:48.931Z,10.57
2023-04-19T21:34:50.640Z,10.90
2023-04-19T21:37:52.261Z,9.93
2023-04-19T21:40:53.842Z,10.37
2023-04-19T21:43:55.528Z,9.80
2023-04-19T21:46:57.290Z,9.57
2023-04-19T21:49:59.017Z,8.47
2023-04-19T21:53:00.975Z,11.13
2023-04-19T21:56:03.024Z,8.73
2023-04-19T21:59:04.678Z,9.93
2023-04-19T22:02:06.401Z,8.63
2023-04-19T22:05:08.367Z,8.93
2023-04-19T22:08:10.545Z,9.50
2023-04-19T22:11:12.589Z,9.90
2023-04-19T22:14:14.381Z,10.27
2023-04-19T22:17:18.541Z,12.57
2023-04-19T22:20:21.083Z,12.00
2023-04-19T22:23:22.762Z,9.87
2023-04-19T22:26:26.267Z,10.43
2023-04-19T22:29:28.020Z,10.13
2023-04-19T22:32:29.613Z,9.73
2023-04-19T22:35:31.284Z,10.10
2023-04-19T22:38:33.091Z,11.57
2023-04-19T22:41:34.748Z,12.70
2023-04-19T22:44:36.349Z,13.00
2023-04-19T22:47:38.800Z,13.20
2023-04-19T22:50:41.941Z,11.30
2023-04-19T22:53:44.252Z,11.60
2023-04-19T22:56:45.988Z,11.27
2023-04-19T22:59:47.602Z,12.40
2023-04-19T23:02:49.392Z,10.87
2023-04-19T23:05:53.362Z,10.17
2023-04-19T23:08:54.984Z,10.20
2023-04-19T23:11:58.661Z,11.23
2023-04-19T23:15:00.318Z,10.40
2023-04-19T23:18:03.757Z,12.03
2023-04-19T23:21:05.983Z,11.80
2023-04-19T23:24:07.785Z,10.20
2023-04-19T23:27:09.449Z,10.43
2023-04-19T23:30:11.265Z,9.97
2023-04-19T23:33:12.820Z,9.60
2023-04-19T23:36:14.650Z,10.77
2023-04-19T23:39:17.058Z,9.73
2023-04-19T23:42:18.878Z,9.10
2023-04-19T23:45:20.922Z,9.73
2023-04-19T23:48:22.673Z,10.23
2023-04-19T23:51:24.321Z,9.83
2023-04-19T23:54:26.378Z,11.57
2023-04-19T23:57:28.007Z,11.57
